This is the latest recevied weather packets stored in our database for station/object IT9FDP-13. If no packets are shown the sender has not sent any weather packets the latest 10 day(s).
| Time | Temp. | Humidity | Pressure | Rain* | Wind** | Luminosity | Snow |
|---|---|---|---|---|---|---|---|
| 1777815321 | 20.56° C | 56% | 1018.7 hPa | 0 mm | - | - | - |
| 1777815023 | 20.56° C | 56% | 1018.7 hPa | 0 mm | - | - | - |
| 1777812926 | 21.11° C | 53% | 1018.8 hPa | 0 mm | - | - | - |
| 1777812342 | 21.11° C | 53% | 1019 hPa | 0 mm | - | - | - |
| 1777810521 | 21.67° C | 51% | 1019.2 hPa | 0 mm | - | - | - |
| 1777810224 | 21.67° C | 51% | 1019.2 hPa | 0 mm | - | - | - |
| 1777809026 | 21.67° C | 51% | 1019.1 hPa | 0 mm | - | - | - |
| 1777808725 | 22.22° C | 51% | 1019.3 hPa | 0 mm | - | - | - |
| 1777807519 | 22.22° C | 50% | 1019.1 hPa | 0 mm | - | - | - |
| 1777804516 | 22.78° C | 50% | 1019.2 hPa | 0 mm | - | - | - |
| 1777803338 | 22.22° C | 50% | 1019.3 hPa | 0 mm | - | - | - |
| 1777803023 | 22.78° C | 50% | 1019.5 hPa | 0 mm | - | - | - |
| 1777802422 | 22.22° C | 50% | 1019.5 hPa | 0 mm | - | - | - |
| 1777802128 | 22.22° C | 50% | 1019.6 hPa | 0 mm | - | - | - |
| 1777800621 | 22.22° C | 50% | 1019.6 hPa | 0 mm | - | - | - |
| 1777800020 | 22.22° C | 50% | 1019.6 hPa | 0 mm | - | - | - |
| 1777796716 | 21.67° C | 50% | 1019.5 hPa | 0 mm | - | - | - |
| 1777796124 | 21.67° C | 50% | 1019.5 hPa | 0 mm | - | - | - |
| 1777795831 | 21.67° C | 50% | 1019.6 hPa | 0 mm | - | - | - |
| 1777794320 | 21.11° C | 51% | 1019.7 hPa | 0 mm | - | - | - |
| 1777794022 | 21.11° C | 51% | 1019.7 hPa | 0 mm | - | - | - |
| 1777788324 | 18.33° C | 58% | 1019.8 hPa | 0 mm | - | - | - |
| 1777783839 | 15.56° C | 64% | 1019.6 hPa | 0 mm | - | - | - |
| 1777782345 | 15.56° C | 63% | 1019.4 hPa | 0 mm | - | - | - |
| 1777780525 | 15° C | 63% | 1019.4 hPa | 0 mm | - | - | - |
* Rain latest hour (hover to see other rain measurements)
** Current wind speed in m/s (hover to see current wind gust speed)